sensor_id;sensor_type;location;lat;lon;timestamp;pressure;altitude;pressure_sealevel;temperature;humidity
75521;BME280;64102;48.628;9.002;2022-10-30T00:01:09;96512.53;;;14.16;68.28
75521;BME280;64102;48.628;9.002;2022-10-30T00:03:35;96513.06;;;14.19;68.16
75521;BME280;64102;48.628;9.002;2022-10-30T00:06:03;96507.78;;;14.11;68.42
75521;BME280;64102;48.628;9.002;2022-10-30T00:08:30;96502.91;;;14.08;68.46
75521;BME280;64102;48.628;9.002;2022-10-30T00:10:55;96496.69;;;14.01;68.39
75521;BME280;64102;48.628;9.002;2022-10-30T00:13:21;96500.81;;;14.12;67.88
75521;BME280;64102;48.628;9.002;2022-10-30T00:15:51;96502.75;;;14.27;67.66
75521;BME280;64102;48.628;9.002;2022-10-30T00:18:17;96493.22;;;14.54;66.10
75521;BME280;64102;48.628;9.002;2022-10-30T00:20:42;96490.25;;;14.74;65.14
75521;BME280;64102;48.628;9.002;2022-10-30T00:23:07;96490.19;;;15.00;64.16
75521;BME280;64102;48.628;9.002;2022-10-30T00:25:34;96482.38;;;14.92;64.44
75521;BME280;64102;48.628;9.002;2022-10-30T00:28:01;96486.06;;;15.15;63.44
75521;BME280;64102;48.628;9.002;2022-10-30T00:30:27;96481.00;;;15.56;61.13
75521;BME280;64102;48.628;9.002;2022-10-30T00:32:52;96484.09;;;15.59;61.73
75521;BME280;64102;48.628;9.002;2022-10-30T00:35:17;96482.81;;;15.72;61.09
75521;BME280;64102;48.628;9.002;2022-10-30T00:37:43;96474.06;;;15.97;59.61
75521;BME280;64102;48.628;9.002;2022-10-30T00:40:14;96481.06;;;16.29;57.87
75521;BME280;64102;48.628;9.002;2022-10-30T00:42:40;96488.22;;;16.59;56.38
75521;BME280;64102;48.628;9.002;2022-10-30T00:45:06;96484.75;;;16.75;56.03
75521;BME280;64102;48.628;9.002;2022-10-30T00:47:35;96482.03;;;16.60;56.92
75521;BME280;64102;48.628;9.002;2022-10-30T00:52:33;96483.44;;;16.87;54.90
75521;BME280;64102;48.628;9.002;2022-10-30T00:55:05;96481.13;;;17.00;54.33
75521;BME280;64102;48.628;9.002;2022-10-30T00:57:32;96479.81;;;16.88;55.58
75521;BME280;64102;48.628;9.002;2022-10-30T00:59:58;96480.63;;;16.88;55.48
75521;BME280;64102;48.628;9.002;2022-10-30T01:02:24;96479.38;;;16.52;58.59
75521;BME280;64102;48.628;9.002;2022-10-30T01:04:51;96480.91;;;16.14;59.64
75521;BME280;64102;48.628;9.002;2022-10-30T01:07:18;96474.06;;;16.21;57.78
75521;BME280;64102;48.628;9.002;2022-10-30T01:09:45;96479.09;;;16.39;57.52
75521;BME280;64102;48.628;9.002;2022-10-30T01:12:11;96471.59;;;16.11;59.67
75521;BME280;64102;48.628;9.002;2022-10-30T01:14:38;96477.50;;;15.97;59.93
75521;BME280;64102;48.628;9.002;2022-10-30T01:25:51;96471.28;;;15.24;62.74
75521;BME280;64102;48.628;9.002;2022-10-30T01:28:44;96473.06;;;15.23;63.39
75521;BME280;64102;48.628;9.002;2022-10-30T01:39:02;96462.13;;;15.54;60.95
75521;BME280;64102;48.628;9.002;2022-10-30T01:41:28;96455.47;;;15.51;61.29
75521;BME280;64102;48.628;9.002;2022-10-30T01:43:58;96462.31;;;15.52;61.44
75521;BME280;64102;48.628;9.002;2022-10-30T01:46:51;96457.13;;;15.68;60.08
75521;BME280;64102;48.628;9.002;2022-10-30T01:53:12;96437.47;;;15.74;60.39
75521;BME280;64102;48.628;9.002;2022-10-30T01:58:33;96445.91;;;15.76;59.57
75521;BME280;64102;48.628;9.002;2022-10-30T02:01:01;96443.78;;;15.55;61.54
75521;BME280;64102;48.628;9.002;2022-10-30T02:03:26;96444.19;;;15.35;63.20
75521;BME280;64102;48.628;9.002;2022-10-30T02:05:53;96448.69;;;15.16;63.63
75521;BME280;64102;48.628;9.002;2022-10-30T02:08:20;96443.75;;;14.97;64.06
75521;BME280;64102;48.628;9.002;2022-10-30T02:10:47;96443.38;;;14.84;65.08
75521;BME280;64102;48.628;9.002;2022-10-30T02:13:14;96447.56;;;14.77;65.19
75521;BME280;64102;48.628;9.002;2022-10-30T02:15:40;96441.34;;;14.70;64.93
75521;BME280;64102;48.628;9.002;2022-10-30T02:18:07;96436.94;;;14.62;65.39
75521;BME280;64102;48.628;9.002;2022-10-30T02:20:33;96433.41;;;14.71;64.52
75521;BME280;64102;48.628;9.002;2022-10-30T02:22:58;96430.34;;;14.76;63.92
75521;BME280;64102;48.628;9.002;2022-10-30T02:25:24;96426.63;;;14.87;63.14
75521;BME280;64102;48.628;9.002;2022-10-30T02:27:49;96423.63;;;14.99;62.77
75521;BME280;64102;48.628;9.002;2022-10-30T02:30:15;96421.50;;;15.03;62.63
75521;BME280;64102;48.628;9.002;2022-10-30T02:32:40;96416.69;;;15.24;61.06
75521;BME280;64102;48.628;9.002;2022-10-30T02:35:06;96421.66;;;15.67;58.24
75521;BME280;64102;48.628;9.002;2022-10-30T02:37:32;96424.25;;;16.16;56.23
75521;BME280;64102;48.628;9.002;2022-10-30T02:40:00;96430.72;;;16.44;54.95
75521;BME280;64102;48.628;9.002;2022-10-30T02:42:25;96422.38;;;16.57;54.52
75521;BME280;64102;48.628;9.002;2022-10-30T02:44:50;96422.56;;;16.55;54.67
75521;BME280;64102;48.628;9.002;2022-10-30T02:47:16;96426.16;;;16.63;54.47
75521;BME280;64102;48.628;9.002;2022-10-30T02:49:41;96427.84;;;16.23;57.69
75521;BME280;64102;48.628;9.002;2022-10-30T02:52:07;96428.81;;;15.82;59.23
75521;BME280;64102;48.628;9.002;2022-10-30T02:54:33;96419.50;;;15.47;60.49
75521;BME280;64102;48.628;9.002;2022-10-30T02:56:59;96427.41;;;15.13;62.67
75521;BME280;64102;48.628;9.002;2022-10-30T02:59:24;96420.31;;;14.89;62.94
75521;BME280;64102;48.628;9.002;2022-10-30T03:01:49;96425.13;;;14.68;63.56
75521;BME280;64102;48.628;9.002;2022-10-30T03:04:15;96421.31;;;14.54;64.44
75521;BME280;64102;48.628;9.002;2022-10-30T03:06:40;96426.09;;;14.41;64.82
75521;BME280;64102;48.628;9.002;2022-10-30T03:09:05;96426.78;;;14.25;65.73
75521;BME280;64102;48.628;9.002;2022-10-30T03:11:32;96430.81;;;14.02;66.86
75521;BME280;64102;48.628;9.002;2022-10-30T03:13:58;96426.03;;;13.89;67.65
75521;BME280;64102;48.628;9.002;2022-10-30T03:16:25;96429.69;;;13.79;67.66
75521;BME280;64102;48.628;9.002;2022-10-30T03:18:53;96428.97;;;13.69;68.05
75521;BME280;64102;48.628;9.002;2022-10-30T03:21:21;96429.84;;;13.60;68.30
75521;BME280;64102;48.628;9.002;2022-10-30T03:23:46;96430.28;;;13.55;68.88
75521;BME280;64102;48.628;9.002;2022-10-30T03:26:12;96429.41;;;13.47;69.36
75521;BME280;64102;48.628;9.002;2022-10-30T03:28:37;96431.69;;;13.32;69.84
75521;BME280;64102;48.628;9.002;2022-10-30T03:31:05;96423.59;;;13.17;70.46
75521;BME280;64102;48.628;9.002;2022-10-30T03:33:32;96429.16;;;13.22;70.34
75521;BME280;64102;48.628;9.002;2022-10-30T03:35:58;96432.06;;;13.10;70.69
75521;BME280;64102;48.628;9.002;2022-10-30T03:38:23;96433.28;;;12.88;72.01
75521;BME280;64102;48.628;9.002;2022-10-30T03:40:49;96436.69;;;12.88;71.65
75521;BME280;64102;48.628;9.002;2022-10-30T03:43:14;96438.75;;;12.85;71.75
75521;BME280;64102;48.628;9.002;2022-10-30T03:45:48;96440.00;;;12.81;71.99
75521;BME280;64102;48.628;9.002;2022-10-30T03:48:14;96441.34;;;12.85;71.90
75521;BME280;64102;48.628;9.002;2022-10-30T03:50:40;96434.75;;;12.90;70.99
75521;BME280;64102;48.628;9.002;2022-10-30T03:53:05;96431.81;;;12.85;71.27
75521;BME280;64102;48.628;9.002;2022-10-30T03:55:31;96437.41;;;12.81;71.12
75521;BME280;64102;48.628;9.002;2022-10-30T03:57:56;96441.38;;;12.75;71.70
75521;BME280;64102;48.628;9.002;2022-10-30T04:00:21;96439.50;;;12.68;72.09
75521;BME280;64102;48.628;9.002;2022-10-30T04:02:48;96438.34;;;12.52;72.53
75521;BME280;64102;48.628;9.002;2022-10-30T04:05:16;96434.72;;;12.36;73.53
75521;BME280;64102;48.628;9.002;2022-10-30T04:07:42;96435.63;;;12.54;71.16
75521;BME280;64102;48.628;9.002;2022-10-30T04:10:08;96441.53;;;12.64;71.45
75521;BME280;64102;48.628;9.002;2022-10-30T04:12:33;96438.81;;;12.66;71.20
75521;BME280;64102;48.628;9.002;2022-10-30T04:14:59;96438.41;;;12.70;70.18
75521;BME280;64102;48.628;9.002;2022-10-30T04:17:24;96448.78;;;12.97;68.79
75521;BME280;64102;48.628;9.002;2022-10-30T04:19:49;96440.53;;;13.57;65.25
75521;BME280;64102;48.628;9.002;2022-10-30T04:22:15;96440.84;;;14.15;62.65
75521;BME280;64102;48.628;9.002;2022-10-30T04:24:40;96438.72;;;14.62;60.83
75521;BME280;64102;48.628;9.002;2022-10-30T04:27:05;96441.78;;;14.57;62.08
75521;BME280;64102;48.628;9.002;2022-10-30T04:29:31;96439.75;;;14.25;62.34
75521;BME280;64102;48.628;9.002;2022-10-30T04:31:56;96447.66;;;13.98;65.04
75521;BME280;64102;48.628;9.002;2022-10-30T04:34:22;96439.53;;;13.58;66.27
75521;BME280;64102;48.628;9.002;2022-10-30T04:36:47;96446.78;;;13.09;68.48
75521;BME280;64102;48.628;9.002;2022-10-30T04:39:13;96447.00;;;12.71;69.99
75521;BME280;64102;48.628;9.002;2022-10-30T04:41:38;96446.53;;;12.38;71.04
75521;BME280;64102;48.628;9.002;2022-10-30T04:44:03;96449.75;;;12.13;72.38
75521;BME280;64102;48.628;9.002;2022-10-30T04:46:30;96446.22;;;11.95;72.81
75521;BME280;64102;48.628;9.002;2022-10-30T04:48:56;96449.09;;;11.73;73.70
75521;BME280;64102;48.628;9.002;2022-10-30T04:51:22;96442.25;;;11.62;74.85
75521;BME280;64102;48.628;9.002;2022-10-30T04:53:47;96448.09;;;11.45;74.50
75521;BME280;64102;48.628;9.002;2022-10-30T04:56:13;96439.50;;;11.25;75.50
75521;BME280;64102;48.628;9.002;2022-10-30T04:58:39;96450.13;;;11.22;75.92
75521;BME280;64102;48.628;9.002;2022-10-30T05:01:05;96447.50;;;11.12;75.82
75521;BME280;64102;48.628;9.002;2022-10-30T05:03:31;96445.69;;;10.94;76.89
75521;BME280;64102;48.628;9.002;2022-10-30T05:06:01;96449.88;;;10.85;78.06
75521;BME280;64102;48.628;9.002;2022-10-30T05:08:27;96444.31;;;10.80;78.43
75521;BME280;64102;48.628;9.002;2022-10-30T05:10:53;96433.97;;;10.70;78.07
75521;BME280;64102;48.628;9.002;2022-10-30T05:13:19;96442.88;;;10.57;79.02
75521;BME280;64102;48.628;9.002;2022-10-30T05:15:44;96444.56;;;10.47;80.03
75521;BME280;64102;48.628;9.002;2022-10-30T05:18:10;96436.28;;;10.43;80.35
75521;BME280;64102;48.628;9.002;2022-10-30T05:20:35;96438.16;;;10.41;80.78
75521;BME280;64102;48.628;9.002;2022-10-30T05:23:01;96439.50;;;10.36;81.09
75521;BME280;64102;48.628;9.002;2022-10-30T05:25:27;96432.63;;;10.46;81.22
75521;BME280;64102;48.628;9.002;2022-10-30T05:28:03;96431.06;;;10.33;81.03
75521;BME280;64102;48.628;9.002;2022-10-30T05:30:31;96434.34;;;10.36;80.81
75521;BME280;64102;48.628;9.002;2022-10-30T05:32:58;96433.28;;;10.38;81.06
75521;BME280;64102;48.628;9.002;2022-10-30T05:35:24;96433.59;;;10.24;81.45
75521;BME280;64102;48.628;9.002;2022-10-30T05:37:50;96430.34;;;10.22;82.33
75521;BME280;64102;48.628;9.002;2022-10-30T05:40:15;96438.81;;;10.13;82.25
75521;BME280;64102;48.628;9.002;2022-10-30T05:42:47;96441.16;;;10.16;82.92
75521;BME280;64102;48.628;9.002;2022-10-30T05:45:13;96438.81;;;10.13;83.24
75521;BME280;64102;48.628;9.002;2022-10-30T05:47:39;96444.66;;;10.15;83.19
75521;BME280;64102;48.628;9.002;2022-10-30T05:50:05;96436.00;;;10.16;82.90
75521;BME280;64102;48.628;9.002;2022-10-30T05:52:30;96445.03;;;10.10;82.80
75521;BME280;64102;48.628;9.002;2022-10-30T05:54:56;96442.59;;;10.29;82.20
75521;BME280;64102;48.628;9.002;2022-10-30T05:57:21;96441.59;;;10.21;82.02
75521;BME280;64102;48.628;9.002;2022-10-30T05:59:46;96446.00;;;10.30;81.88
75521;BME280;64102;48.628;9.002;2022-10-30T06:02:12;96440.78;;;10.20;82.41
75521;BME280;64102;48.628;9.002;2022-10-30T06:04:37;96439.69;;;10.23;82.26
75521;BME280;64102;48.628;9.002;2022-10-30T06:07:02;96447.19;;;10.26;82.27
75521;BME280;64102;48.628;9.002;2022-10-30T06:09:28;96440.84;;;10.30;82.06
75521;BME280;64102;48.628;9.002;2022-10-30T06:11:53;96449.19;;;10.43;81.13
75521;BME280;64102;48.628;9.002;2022-10-30T06:14:19;96443.09;;;10.44;81.39
75521;BME280;64102;48.628;9.002;2022-10-30T06:16:45;96450.72;;;10.55;80.17
75521;BME280;64102;48.628;9.002;2022-10-30T06:19:10;96442.69;;;10.49;80.68
75521;BME280;64102;48.628;9.002;2022-10-30T06:21:35;96449.91;;;10.55;80.19
75521;BME280;64102;48.628;9.002;2022-10-30T06:24:01;96449.00;;;10.65;80.02
75521;BME280;64102;48.628;9.002;2022-10-30T06:26:26;96450.06;;;10.32;78.76
75521;BME280;64102;48.628;9.002;2022-10-30T06:28:51;96457.44;;;10.37;80.31
75521;BME280;64102;48.628;9.002;2022-10-30T06:31:17;96454.78;;;10.48;79.51
75521;BME280;64102;48.628;9.002;2022-10-30T06:33:42;96457.75;;;10.44;79.38
75521;BME280;64102;48.628;9.002;2022-10-30T06:36:08;96461.38;;;10.41;79.52
75521;BME280;64102;48.628;9.002;2022-10-30T06:38:33;96453.63;;;10.71;78.96
75521;BME280;64102;48.628;9.002;2022-10-30T06:40:58;96444.56;;;11.46;75.55
75521;BME280;64102;48.628;9.002;2022-10-30T06:43:24;96454.09;;;12.13;73.06
75521;BME280;64102;48.628;9.002;2022-10-30T06:45:49;96461.81;;;13.15;69.04
75521;BME280;64102;48.628;9.002;2022-10-30T06:48:14;96451.16;;;13.71;66.58
75521;BME280;64102;48.628;9.002;2022-10-30T06:50:40;96448.34;;;14.00;65.38
75521;BME280;64102;48.628;9.002;2022-10-30T06:53:05;96451.75;;;14.44;64.14
75521;BME280;64102;48.628;9.002;2022-10-30T06:55:30;96444.13;;;15.10;61.21
75521;BME280;64102;48.628;9.002;2022-10-30T06:57:56;96450.13;;;15.85;58.99
75521;BME280;64102;48.628;9.002;2022-10-30T07:00:22;96454.31;;;16.43;57.28
75521;BME280;64102;48.628;9.002;2022-10-30T07:02:58;96449.22;;;16.82;55.57
75521;BME280;64102;48.628;9.002;2022-10-30T07:05:24;96441.31;;;17.37;53.80
75521;BME280;64102;48.628;9.002;2022-10-30T07:07:49;96444.88;;;17.44;52.07
75521;BME280;64102;48.628;9.002;2022-10-30T07:10:15;96454.75;;;17.26;53.54
75521;BME280;64102;48.628;9.002;2022-10-30T07:12:40;96455.31;;;16.50;56.27
75521;BME280;64102;48.628;9.002;2022-10-30T07:15:06;96455.66;;;15.98;58.11
75521;BME280;64102;48.628;9.002;2022-10-30T07:17:31;96455.66;;;15.98;58.31
75521;BME280;64102;48.628;9.002;2022-10-30T07:19:57;96457.47;;;16.06;58.07
75521;BME280;64102;48.628;9.002;2022-10-30T07:22:22;96455.47;;;15.67;58.97
75521;BME280;64102;48.628;9.002;2022-10-30T07:24:47;96463.81;;;15.79;58.65
75521;BME280;64102;48.628;9.002;2022-10-30T07:27:13;96461.50;;;15.52;61.17
75521;BME280;64102;48.628;9.002;2022-10-30T07:29:38;96461.94;;;14.97;63.48
75521;BME280;64102;48.628;9.002;2022-10-30T07:32:04;96463.47;;;14.82;62.75
75521;BME280;64102;48.628;9.002;2022-10-30T07:34:29;96460.25;;;14.88;62.96
75521;BME280;64102;48.628;9.002;2022-10-30T07:36:55;96463.63;;;15.22;61.35
75521;BME280;64102;48.628;9.002;2022-10-30T07:39:20;96455.81;;;15.64;60.25
75521;BME280;64102;48.628;9.002;2022-10-30T07:41:47;96459.56;;;15.86;60.03
75521;BME280;64102;48.628;9.002;2022-10-30T07:44:14;96466.09;;;16.06;58.71
75521;BME280;64102;48.628;9.002;2022-10-30T07:46:39;96465.28;;;16.14;58.04
75521;BME280;64102;48.628;9.002;2022-10-30T07:49:04;96469.47;;;16.47;56.67
75521;BME280;64102;48.628;9.002;2022-10-30T07:51:30;96462.63;;;17.10;55.71
75521;BME280;64102;48.628;9.002;2022-10-30T07:53:55;96457.25;;;17.42;57.77
75521;BME280;64102;48.628;9.002;2022-10-30T07:56:20;96466.44;;;18.52;53.86
75521;BME280;64102;48.628;9.002;2022-10-30T07:58:46;96469.50;;;19.29;54.67
75521;BME280;64102;48.628;9.002;2022-10-30T08:01:11;96465.28;;;19.13;50.53
75521;BME280;64102;48.628;9.002;2022-10-30T08:03:36;96460.06;;;20.27;46.05
75521;BME280;64102;48.628;9.002;2022-10-30T08:06:02;96469.19;;;21.15;44.18
75521;BME280;64102;48.628;9.002;2022-10-30T08:08:27;96471.59;;;21.70;42.33
75521;BME280;64102;48.628;9.002;2022-10-30T08:10:53;96468.69;;;22.32;41.25
75521;BME280;64102;48.628;9.002;2022-10-30T08:13:18;96469.78;;;23.22;38.33
75521;BME280;64102;48.628;9.002;2022-10-30T08:15:43;96464.38;;;23.61;36.95
75521;BME280;64102;48.628;9.002;2022-10-30T08:18:09;96463.28;;;23.76;36.76
75521;BME280;64102;48.628;9.002;2022-10-30T08:20:34;96464.91;;;23.77;37.37
75521;BME280;64102;48.628;9.002;2022-10-30T08:22:59;96470.34;;;24.13;37.05
75521;BME280;64102;48.628;9.002;2022-10-30T08:25:27;96469.75;;;24.11;36.93
75521;BME280;64102;48.628;9.002;2022-10-30T08:27:55;96463.38;;;24.75;36.21
75521;BME280;64102;48.628;9.002;2022-10-30T08:30:22;96465.28;;;25.29;34.79
75521;BME280;64102;48.628;9.002;2022-10-30T08:32:48;96469.34;;;25.79;33.80
75521;BME280;64102;48.628;9.002;2022-10-30T08:35:13;96459.03;;;26.43;32.94
75521;BME280;64102;48.628;9.002;2022-10-30T08:37:40;96466.56;;;27.04;32.17
75521;BME280;64102;48.628;9.002;2022-10-30T08:40:06;96468.31;;;27.50;31.35
75521;BME280;64102;48.628;9.002;2022-10-30T08:42:32;96465.47;;;27.40;31.53
75521;BME280;64102;48.628;9.002;2022-10-30T08:44:57;96465.59;;;28.46;29.52
75521;BME280;64102;48.628;9.002;2022-10-30T08:47:23;96461.72;;;28.54;29.76
75521;BME280;64102;48.628;9.002;2022-10-30T08:49:48;96462.28;;;28.73;29.17
75521;BME280;64102;48.628;9.002;2022-10-30T08:52:13;96466.81;;;29.11;28.65
75521;BME280;64102;48.628;9.002;2022-10-30T08:54:38;96464.13;;;28.56;29.97
75521;BME280;64102;48.628;9.002;2022-10-30T08:57:04;96459.09;;;28.09;30.27
75521;BME280;64102;48.628;9.002;2022-10-30T08:59:29;96463.50;;;28.03;31.45
75521;BME280;64102;48.628;9.002;2022-10-30T09:01:54;96458.81;;;28.22;30.24
75521;BME280;64102;48.628;9.002;2022-10-30T09:04:20;96462.13;;;28.29;30.39
75521;BME280;64102;48.628;9.002;2022-10-30T09:06:45;96460.16;;;27.51;31.00
75521;BME280;64102;48.628;9.002;2022-10-30T09:09:11;96461.38;;;28.84;29.57
75521;BME280;64102;48.628;9.002;2022-10-30T09:11:38;96463.91;;;29.12;28.59
75521;BME280;64102;48.628;9.002;2022-10-30T09:14:03;96460.56;;;29.87;26.98
75521;BME280;64102;48.628;9.002;2022-10-30T09:16:28;96462.38;;;28.61;29.06
75521;BME280;64102;48.628;9.002;2022-10-30T09:18:54;96464.56;;;30.11;27.41
75521;BME280;64102;48.628;9.002;2022-10-30T09:21:19;96456.66;;;30.90;24.76
75521;BME280;64102;48.628;9.002;2022-10-30T09:23:44;96464.31;;;31.81;23.62
75521;BME280;64102;48.628;9.002;2022-10-30T09:26:10;96464.88;;;32.03;22.56
75521;BME280;64102;48.628;9.002;2022-10-30T09:28:35;96464.69;;;32.30;21.94
75521;BME280;64102;48.628;9.002;2022-10-30T09:31:01;96462.00;;;32.15;21.69
75521;BME280;64102;48.628;9.002;2022-10-30T09:33:26;96463.06;;;32.34;21.20
75521;BME280;64102;48.628;9.002;2022-10-30T09:35:52;96469.47;;;32.28;20.92
75521;BME280;64102;48.628;9.002;2022-10-30T09:38:17;96468.38;;;32.09;20.24
75521;BME280;64102;48.628;9.002;2022-10-30T09:41:10;96467.09;;;32.26;21.05
75521;BME280;64102;48.628;9.002;2022-10-30T09:44:18;96470.00;;;32.20;20.50
75521;BME280;64102;48.628;9.002;2022-10-30T09:52:59;96470.25;;;33.09;18.87
75521;BME280;64102;48.628;9.002;2022-10-30T09:55:26;96474.28;;;32.21;21.06
75521;BME280;64102;48.628;9.002;2022-10-30T10:00:39;96481.19;;;33.23;19.39
75521;BME280;64102;48.628;9.002;2022-10-30T10:05:50;96470.84;;;33.70;19.18
75521;BME280;64102;48.628;9.002;2022-10-30T10:08:50;96477.06;;;33.56;18.86
75521;BME280;64102;48.628;9.002;2022-10-30T10:11:24;96473.97;;;33.13;19.56
75521;BME280;64102;48.628;9.002;2022-10-30T10:14:02;96475.59;;;33.04;18.40
75521;BME280;64102;48.628;9.002;2022-10-30T10:16:37;96476.69;;;33.83;17.93
75521;BME280;64102;48.628;9.002;2022-10-30T10:22:00;96475.63;;;33.84;19.13
75521;BME280;64102;48.628;9.002;2022-10-30T10:24:29;96476.50;;;34.18;17.90
75521;BME280;64102;48.628;9.002;2022-10-30T10:34:18;96473.03;;;34.85;17.58
75521;BME280;64102;48.628;9.002;2022-10-30T10:40:15;96463.84;;;32.90;21.03
75521;BME280;64102;48.628;9.002;2022-10-30T10:42:54;96474.59;;;34.57;17.63
75521;BME280;64102;48.628;9.002;2022-10-30T10:45:36;96460.16;;;34.82;16.82
75521;BME280;64102;48.628;9.002;2022-10-30T10:50:51;96462.31;;;34.12;20.79
75521;BME280;64102;48.628;9.002;2022-10-30T10:53:28;96456.59;;;35.21;20.25
75521;BME280;64102;48.628;9.002;2022-10-30T10:56:02;96456.06;;;35.42;18.36
75521;BME280;64102;48.628;9.002;2022-10-30T10:58:42;96446.47;;;35.36;16.67
75521;BME280;64102;48.628;9.002;2022-10-30T11:01:14;96452.56;;;35.42;16.38
75521;BME280;64102;48.628;9.002;2022-10-30T11:04:07;96442.63;;;34.66;17.97
75521;BME280;64102;48.628;9.002;2022-10-30T11:06:40;96456.88;;;35.43;22.23
75521;BME280;64102;48.628;9.002;2022-10-30T11:09:17;96452.03;;;34.64;22.41
75521;BME280;64102;48.628;9.002;2022-10-30T11:11:53;96448.47;;;33.46;24.49
75521;BME280;64102;48.628;9.002;2022-10-30T11:14:22;96449.84;;;34.37;22.15
75521;BME280;64102;48.628;9.002;2022-10-30T11:19:28;96446.88;;;33.40;24.53
75521;BME280;64102;48.628;9.002;2022-10-30T11:21:56;96443.59;;;33.58;22.25
75521;BME280;64102;48.628;9.002;2022-10-30T11:24:28;96443.72;;;34.31;20.99
75521;BME280;64102;48.628;9.002;2022-10-30T11:27:23;96446.81;;;33.55;24.33
75521;BME280;64102;48.628;9.002;2022-10-30T11:29:58;96443.56;;;32.74;26.59
75521;BME280;64102;48.628;9.002;2022-10-30T11:32:29;96444.34;;;32.09;27.52
75521;BME280;64102;48.628;9.002;2022-10-30T11:35:21;96442.97;;;32.01;26.43
75521;BME280;64102;48.628;9.002;2022-10-30T11:37:49;96444.66;;;32.17;26.00
75521;BME280;64102;48.628;9.002;2022-10-30T11:40:20;96448.81;;;31.10;28.45
75521;BME280;64102;48.628;9.002;2022-10-30T11:42:55;96442.56;;;31.42;28.53
75521;BME280;64102;48.628;9.002;2022-10-30T11:45:24;96449.13;;;31.19;29.55
75521;BME280;64102;48.628;9.002;2022-10-30T11:47:52;96442.41;;;31.11;30.52
75521;BME280;64102;48.628;9.002;2022-10-30T11:50:20;96448.03;;;31.15;29.93
75521;BME280;64102;48.628;9.002;2022-10-30T11:52:48;96446.56;;;30.92;30.05
75521;BME280;64102;48.628;9.002;2022-10-30T11:57:56;96433.09;;;31.91;20.85
75521;BME280;64102;48.628;9.002;2022-10-30T12:00:24;96430.44;;;31.86;22.96
75521;BME280;64102;48.628;9.002;2022-10-30T12:02:52;96428.28;;;31.88;22.83
75521;BME280;64102;48.628;9.002;2022-10-30T12:07:49;96431.97;;;31.62;29.82
75521;BME280;64102;48.628;9.002;2022-10-30T12:10:26;96425.50;;;30.54;30.55
75521;BME280;64102;48.628;9.002;2022-10-30T12:12:52;96430.09;;;30.27;29.25
75521;BME280;64102;48.628;9.002;2022-10-30T12:15:20;96433.78;;;29.94;33.31
75521;BME280;64102;48.628;9.002;2022-10-30T12:17:58;96430.06;;;30.58;31.06
75521;BME280;64102;48.628;9.002;2022-10-30T12:20:25;96426.53;;;30.90;24.34
75521;BME280;64102;48.628;9.002;2022-10-30T12:22:51;96421.72;;;30.87;24.15
75521;BME280;64102;48.628;9.002;2022-10-30T12:25:29;96422.19;;;31.21;23.78
75521;BME280;64102;48.628;9.002;2022-10-30T12:28:05;96418.81;;;30.88;23.49
75521;BME280;64102;48.628;9.002;2022-10-30T12:30:35;96413.88;;;30.65;25.13
75521;BME280;64102;48.628;9.002;2022-10-30T12:33:17;96419.28;;;29.85;26.03
75521;BME280;64102;48.628;9.002;2022-10-30T12:35:57;96416.44;;;29.43;27.23
75521;BME280;64102;48.628;9.002;2022-10-30T12:43:35;96408.66;;;29.58;30.24
75521;BME280;64102;48.628;9.002;2022-10-30T12:46:20;96408.69;;;29.63;33.73
75521;BME280;64102;48.628;9.002;2022-10-30T12:57:40;96407.47;;;29.05;29.81
75521;BME280;64102;48.628;9.002;2022-10-30T13:00:15;96400.69;;;29.36;30.44
75521;BME280;64102;48.628;9.002;2022-10-30T13:02:54;96393.94;;;29.77;29.63
75521;BME280;64102;48.628;9.002;2022-10-30T13:05:47;96400.66;;;29.58;29.09
75521;BME280;64102;48.628;9.002;2022-10-30T13:08:35;96384.69;;;29.58;28.42
75521;BME280;64102;48.628;9.002;2022-10-30T13:11:12;96385.44;;;29.53;28.35
75521;BME280;64102;48.628;9.002;2022-10-30T13:13:51;96389.28;;;29.62;27.93
75521;BME280;64102;48.628;9.002;2022-10-30T13:16:24;96387.38;;;29.58;28.39
75521;BME280;64102;48.628;9.002;2022-10-30T13:18:52;96385.72;;;30.42;29.21
75521;BME280;64102;48.628;9.002;2022-10-30T13:24:02;96386.31;;;30.49;27.30
75521;BME280;64102;48.628;9.002;2022-10-30T13:26:38;96375.34;;;30.88;27.09
75521;BME280;64102;48.628;9.002;2022-10-30T13:29:22;96375.63;;;30.91;26.93
75521;BME280;64102;48.628;9.002;2022-10-30T13:37:33;96381.41;;;29.99;29.05
75521;BME280;64102;48.628;9.002;2022-10-30T13:45:59;96380.38;;;30.42;26.58
75521;BME280;64102;48.628;9.002;2022-10-30T13:54:20;96382.03;;;30.11;31.62
75521;BME280;64102;48.628;9.002;2022-10-30T13:56:47;96378.22;;;29.49;30.64
75521;BME280;64102;48.628;9.002;2022-10-30T14:04:45;96386.69;;;28.64;30.39
75521;BME280;64102;48.628;9.002;2022-10-30T14:07:29;96386.59;;;27.07;39.22
75521;BME280;64102;48.628;9.002;2022-10-30T14:10:09;96386.44;;;26.39;46.03
75521;BME280;64102;48.628;9.002;2022-10-30T14:12:49;96379.53;;;26.26;42.08
75521;BME280;64102;48.628;9.002;2022-10-30T14:20:37;96384.66;;;25.56;31.17
75521;BME280;64102;48.628;9.002;2022-10-30T14:25:32;96391.19;;;25.83;30.61
75521;BME280;64102;48.628;9.002;2022-10-30T14:27:57;96386.44;;;25.85;31.77
75521;BME280;64102;48.628;9.002;2022-10-30T14:30:26;96382.56;;;25.58;31.47
75521;BME280;64102;48.628;9.002;2022-10-30T14:32:52;96393.28;;;25.33;33.76
75521;BME280;64102;48.628;9.002;2022-10-30T14:35:35;96387.88;;;25.10;37.08
75521;BME280;64102;48.628;9.002;2022-10-30T14:40:36;96396.66;;;24.68;39.06
75521;BME280;64102;48.628;9.002;2022-10-30T14:43:44;96395.00;;;24.48;40.59
75521;BME280;64102;48.628;9.002;2022-10-30T14:46:22;96399.16;;;24.38;40.33
75521;BME280;64102;48.628;9.002;2022-10-30T14:49:34;96391.56;;;23.98;41.44
75521;BME280;64102;48.628;9.002;2022-10-30T14:57:51;96396.16;;;22.96;45.49
75521;BME280;64102;48.628;9.002;2022-10-30T15:03:02;96409.16;;;22.64;47.61
75521;BME280;64102;48.628;9.002;2022-10-30T15:13:50;96412.22;;;21.89;48.34
75521;BME280;64102;48.628;9.002;2022-10-30T15:16:19;96411.16;;;21.70;48.91